Terminal Aerodrome Forecast
Issued by NWS Wakefield, VA

Home | Current Version | Previous Version | Text Only | Print | Product List | Glossary On
Versions: 1 2 3 4 5 6 7 8 9 10 11 12 13 14 15 16 17 18 19 20 21 22 23 24 25 26
000
FTUS41 KAKQ 250500
TAFECG
TAF
KECG 250533Z 2506/2606 34005KT P6SM VCSH SCT010 SCT070 BKN120
     FM251200 VRB06KT P6SM VCSH BKN035 BKN100 BKN250
     FM252100 VRB06KT P6SM SCT045 BKN250=

USA.gov is the U.S. government's official web portal to all federal, state and local government web resources and services.